CheckWX is a tool to help pilots better visualize weather data.  It is not intended as a substitute for an official pre-flight weather briefing.

09:26:04 UTC

KCXU METAR
Camilla-Mitchell County Airport
Camilla, Georgia, USA
Current

31 mins ago

KCXU 200855Z AUTO 00000KT 10SM OVC010 11/09 A3016 RMK AO1 T01100090
Observed
Feb-20 @ 08:55 UTC
Visibility
16,093 meters
Flight Rules
MVFR
Cloud Levels
  • Overcast at 1,000' AGL
Temperature
11°C / 52°F
Dewpoint
C / 48°F
Humidity
88%
Altimeter
30.16" Hg
Pressure
1021.32 hPa
Previous

51 mins ago

KCXU 200835Z AUTO 00000KT 10SM OVC010 11/09 A3016 RMK AO1 T01110090
Observed
Feb-20 @ 08:35 UTC
Visibility
16,093 meters
Flight Rules
MVFR
Cloud Levels
  • Overcast at 1,000' AGL
Temperature
11°C / 52°F
Dewpoint
C / 48°F
Humidity
88%
Altimeter
30.16" Hg
Pressure
1021.32 hPa
Previous

1 hour ago

KCXU 200815Z AUTO 00000KT 10SM OVC010 11/09 A3016 RMK AO1 T01110089
Observed
Feb-20 @ 08:15 UTC
Visibility
16,093 meters
Flight Rules
MVFR
Cloud Levels
  • Overcast at 1,000' AGL
Temperature
11°C / 52°F
Dewpoint
C / 48°F
Humidity
88%
Altimeter
30.16" Hg
Pressure
1021.32 hPa